createdAt,value
2023-02-28T00:01:34.042Z,7.20
2023-02-28T00:04:01.606Z,8.15
2023-02-28T00:06:29.362Z,8.77
2023-02-28T00:08:56.657Z,8.82
2023-02-28T00:11:23.628Z,8.43
2023-02-28T00:13:50.984Z,8.73
2023-02-28T00:16:23.147Z,9.18
2023-02-28T00:18:51.057Z,8.60
2023-02-28T00:21:20.155Z,9.07
2023-02-28T00:23:47.996Z,8.75
2023-02-28T00:26:15.017Z,9.07
2023-02-28T00:28:41.841Z,9.88
2023-02-28T00:31:08.808Z,9.25
2023-02-28T00:33:35.742Z,8.88
2023-02-28T00:36:08.550Z,8.82
2023-02-28T00:38:36.005Z,8.95
2023-02-28T00:41:06.200Z,9.75
2023-02-28T00:43:40.245Z,10.00
2023-02-28T00:46:08.253Z,9.47
2023-02-28T00:48:35.434Z,8.40
2023-02-28T00:51:05.798Z,9.32
2023-02-28T00:53:33.910Z,9.00
2023-02-28T00:56:01.282Z,8.10
2023-02-28T00:58:28.321Z,8.77
2023-02-28T01:00:56.293Z,8.50
2023-02-28T01:03:24.989Z,8.10
2023-02-28T01:05:54.304Z,8.50
2023-02-28T01:08:21.226Z,8.57
2023-02-28T01:10:48.903Z,8.13
2023-02-28T01:13:17.830Z,8.32
2023-02-28T01:15:52.748Z,8.43
2023-02-28T01:20:47.319Z,8.52
2023-02-28T01:23:14.258Z,8.40
2023-02-28T01:25:44.160Z,8.43
2023-02-28T01:28:11.018Z,8.00
2023-02-28T01:30:37.895Z,8.00
2023-02-28T01:33:04.761Z,8.30
2023-02-28T01:35:36.279Z,8.20
2023-02-28T01:38:19.369Z,7.90
2023-02-28T01:40:53.820Z,8.10
2023-02-28T01:43:37.254Z,8.48
2023-02-28T01:46:06.556Z,8.20
2023-02-28T01:48:39.705Z,8.65
2023-02-28T01:51:13.951Z,9.70
2023-02-28T01:53:49.477Z,8.60
2023-02-28T01:56:23.176Z,9.20
2023-02-28T01:58:52.792Z,8.77
2023-02-28T02:01:22.706Z,9.00
2023-02-28T02:03:57.285Z,9.25
2023-02-28T02:06:42.240Z,8.55
2023-02-28T02:09:09.632Z,8.60
2023-02-28T02:11:37.515Z,8.50
2023-02-28T02:14:19.511Z,8.90
2023-02-28T02:17:40.917Z,8.80
2023-02-28T02:20:40.799Z,9.57
2023-02-28T02:23:45.178Z,9.27
2023-02-28T02:26:57.390Z,9.25
2023-02-28T02:29:59.580Z,8.60
2023-02-28T02:33:00.103Z,9.07
2023-02-28T02:35:55.784Z,8.50
2023-02-28T02:41:14.887Z,8.18
2023-02-28T02:43:51.269Z,8.50
2023-02-28T02:46:44.035Z,8.75
2023-02-28T02:49:24.052Z,8.77
2023-02-28T02:51:53.342Z,8.20
2023-02-28T02:54:29.877Z,8.25
2023-02-28T02:57:09.761Z,8.40
2023-02-28T02:59:44.333Z,9.27
2023-02-28T03:02:16.053Z,10.55
2023-02-28T03:05:01.756Z,10.85
2023-02-28T03:07:28.785Z,9.30
2023-02-28T03:09:58.648Z,9.85
2023-02-28T03:12:43.073Z,10.38
2023-02-28T03:15:26.025Z,10.37
2023-02-28T03:18:54.820Z,10.77
2023-02-28T03:21:29.449Z,10.10
2023-02-28T03:24:49.817Z,10.35
2023-02-28T03:27:30.383Z,9.02
2023-02-28T03:30:19.317Z,10.35
2023-02-28T03:33:06.976Z,9.90
2023-02-28T03:35:41.816Z,9.30
2023-02-28T03:38:42.936Z,9.70
2023-02-28T03:41:22.551Z,10.55
2023-02-28T03:43:59.718Z,9.45
2023-02-28T03:46:32.509Z,9.43
2023-02-28T03:49:14.836Z,8.77
2023-02-28T03:51:44.054Z,10.13
2023-02-28T03:54:19.588Z,10.05
2023-02-28T03:57:05.753Z,11.20
2023-02-28T03:59:49.010Z,10.70
2023-02-28T04:02:16.155Z,10.98
2023-02-28T04:04:46.624Z,9.98
2023-02-28T04:07:13.635Z,10.48
2023-02-28T04:09:40.545Z,10.90
2023-02-28T04:12:08.128Z,11.05
2023-02-28T04:14:35.006Z,10.27
2023-02-28T04:17:02.175Z,11.30
2023-02-28T04:19:28.984Z,9.50
2023-02-28T04:21:56.483Z,10.05
2023-02-28T04:24:27.120Z,10.57
2023-02-28T04:26:57.774Z,10.05
2023-02-28T04:29:33.429Z,10.10
2023-02-28T04:32:02.179Z,9.50
2023-02-28T04:34:32.131Z,10.02
2023-02-28T04:37:16.997Z,10.80
2023-02-28T04:39:47.765Z,8.68
2023-02-28T04:42:14.942Z,8.60
2023-02-28T04:44:41.848Z,9.68
2023-02-28T04:47:08.692Z,10.18
2023-02-28T04:49:36.138Z,10.95
2023-02-28T04:52:03.532Z,9.90
2023-02-28T04:54:30.980Z,9.15
2023-02-28T04:56:58.578Z,9.45
2023-02-28T04:59:28.571Z,9.32
2023-02-28T05:01:55.433Z,9.10
2023-02-28T05:04:22.412Z,9.15
2023-02-28T05:06:49.208Z,8.85
2023-02-28T05:09:16.041Z,8.43
2023-02-28T05:11:42.937Z,8.85
2023-02-28T05:14:15.239Z,8.25
2023-02-28T05:16:42.781Z,8.32
2023-02-28T05:19:09.982Z,8.10
2023-02-28T05:21:43.144Z,7.90
2023-02-28T05:24:13.513Z,8.10
2023-02-28T05:26:44.073Z,8.00
2023-02-28T05:29:11.644Z,7.65
2023-02-28T05:31:38.995Z,7.20
2023-02-28T05:34:06.325Z,7.18
2023-02-28T05:36:33.675Z,7.13
2023-02-28T05:39:00.768Z,7.63
2023-02-28T05:41:28.309Z,8.05
2023-02-28T05:43:55.442Z,8.57
2023-02-28T05:46:22.300Z,8.27
2023-02-28T05:48:49.819Z,8.13
2023-02-28T05:51:17.501Z,9.05
2023-02-28T05:53:45.140Z,8.10
2023-02-28T05:56:12.365Z,9.13
2023-02-28T05:58:39.248Z,9.57
2023-02-28T06:01:41.360Z,9.18
2023-02-28T06:04:22.282Z,8.80
2023-02-28T06:06:58.760Z,8.85
2023-02-28T06:09:26.222Z,9.13
2023-02-28T06:11:53.159Z,9.63
2023-02-28T06:14:21.939Z,8.45
2023-02-28T06:16:48.977Z,9.65
2023-02-28T06:19:16.638Z,9.05
2023-02-28T06:21:43.856Z,9.35
2023-02-28T06:24:12.295Z,8.43
2023-02-28T06:26:39.130Z,8.88
2023-02-28T06:29:06.175Z,8.73
2023-02-28T06:31:33.647Z,8.80
2023-02-28T06:34:00.639Z,8.45
2023-02-28T06:36:27.419Z,8.38
2023-02-28T06:38:56.618Z,9.38
2023-02-28T06:41:26.569Z,8.63
2023-02-28T06:43:54.221Z,9.02
2023-02-28T06:46:21.177Z,9.07
2023-02-28T06:48:48.224Z,8.77
2023-02-28T06:51:23.472Z,9.05
2023-02-28T06:53:50.830Z,8.07
2023-02-28T06:56:19.446Z,8.20
2023-02-28T06:58:51.761Z,8.32
2023-02-28T07:01:20.119Z,8.75
2023-02-28T07:03:47.938Z,9.35
2023-02-28T07:06:14.925Z,8.93
2023-02-28T07:08:42.278Z,9.50
2023-02-28T07:11:09.201Z,10.43
2023-02-28T07:13:37.377Z,11.90
2023-02-28T07:16:07.774Z,10.73
2023-02-28T07:18:35.115Z,10.50
2023-02-28T07:21:08.302Z,10.60
2023-02-28T07:23:35.975Z,9.57
2023-02-28T07:26:03.253Z,9.25
2023-02-28T07:28:30.130Z,8.80
2023-02-28T07:30:56.933Z,9.07
2023-02-28T07:33:25.012Z,10.35
2023-02-28T07:35:51.989Z,10.70
2023-02-28T07:38:19.343Z,9.68
2023-02-28T07:40:46.129Z,10.48
2023-02-28T07:43:13.079Z,11.85
2023-02-28T07:45:40.042Z,10.80
2023-02-28T07:48:07.014Z,12.00
2023-02-28T07:50:33.916Z,11.68
2023-02-28T07:53:01.018Z,13.35
2023-02-28T07:55:28.384Z,11.88
2023-02-28T07:57:55.419Z,12.30
2023-02-28T08:00:23.012Z,12.10
2023-02-28T08:02:50.097Z,11.77
2023-02-28T08:05:17.795Z,12.48
2023-02-28T08:07:45.677Z,12.02
2023-02-28T08:10:12.897Z,13.02
2023-02-28T08:12:39.711Z,12.57
2023-02-28T08:15:07.622Z,11.57
2023-02-28T08:17:35.532Z,12.43
2023-02-28T08:20:02.435Z,12.77
2023-02-28T08:22:29.263Z,13.35
2023-02-28T08:24:56.093Z,12.98
2023-02-28T08:27:22.884Z,14.98
2023-02-28T08:29:49.731Z,13.70
2023-02-28T08:32:28.911Z,14.45
2023-02-28T08:34:56.886Z,15.57
2023-02-28T08:37:23.690Z,14.90
2023-02-28T08:39:50.477Z,16.02
2023-02-28T08:42:17.357Z,15.20
2023-02-28T08:44:44.766Z,15.63
2023-02-28T08:47:11.544Z,16.33
2023-02-28T08:49:38.952Z,15.30
2023-02-28T08:52:05.906Z,16.23
2023-02-28T08:54:34.388Z,15.82
2023-02-28T08:57:01.522Z,14.18
2023-02-28T08:59:29.338Z,14.10
2023-02-28T09:01:56.554Z,13.77
2023-02-28T09:04:25.297Z,12.48
2023-02-28T09:06:52.681Z,12.35
2023-02-28T09:09:19.489Z,12.35
2023-02-28T09:11:46.279Z,11.98
2023-02-28T09:14:13.177Z,12.57
2023-02-28T09:16:40.137Z,11.90
2023-02-28T09:19:07.143Z,11.77
2023-02-28T09:21:33.961Z,11.05
2023-02-28T09:24:00.707Z,11.15
2023-02-28T09:26:34.951Z,11.32
2023-02-28T09:29:09.632Z,11.60
2023-02-28T09:31:36.431Z,11.77
2023-02-28T09:34:05.028Z,13.40
2023-02-28T09:36:43.837Z,11.88
2023-02-28T09:39:13.638Z,12.23
2023-02-28T09:41:52.112Z,12.77
2023-02-28T09:44:45.778Z,10.55
2023-02-28T09:47:36.118Z,9.98
2023-02-28T09:50:27.656Z,9.23
2023-02-28T09:52:56.634Z,9.02
2023-02-28T09:55:35.050Z,9.15
2023-02-28T09:58:03.031Z,8.45
2023-02-28T10:00:32.813Z,8.30
2023-02-28T10:03:25.804Z,7.65
2023-02-28T10:06:18.839Z,8.20
2023-02-28T10:09:04.089Z,8.20
2023-02-28T10:11:35.016Z,7.72
2023-02-28T10:14:18.049Z,6.50
2023-02-28T10:17:01.456Z,6.60
2023-02-28T10:20:12.051Z,7.30
2023-02-28T10:22:57.153Z,7.30
2023-02-28T10:25:29.241Z,6.43
2023-02-28T10:28:19.198Z,7.72
2023-02-28T10:30:53.931Z,8.25
2023-02-28T10:33:37.643Z,7.60
2023-02-28T10:36:07.945Z,7.65
2023-02-28T10:38:41.087Z,7.38
2023-02-28T10:41:18.313Z,6.50
2023-02-28T10:43:48.340Z,6.65
2023-02-28T10:46:29.716Z,6.68
2023-02-28T10:49:16.054Z,6.50
2023-02-28T10:51:43.251Z,6.72
2023-02-28T10:54:38.972Z,4.95
2023-02-28T10:59:53.688Z,3.42
2023-02-28T11:02:39.484Z,2.80
2023-02-28T11:05:32.538Z,3.30
2023-02-28T11:08:19.654Z,3.50
2023-02-28T11:11:00.311Z,3.40
2023-02-28T11:13:35.212Z,2.90
2023-02-28T11:16:06.734Z,2.35
2023-02-28T11:18:52.392Z,1.90
2023-02-28T11:21:34.970Z,1.58
2023-02-28T11:24:07.434Z,1.63
2023-02-28T11:26:42.256Z,1.60
2023-02-28T11:29:27.793Z,1.50
2023-02-28T11:32:12.452Z,1.73
2023-02-28T11:34:40.590Z,1.60
2023-02-28T11:37:15.158Z,1.20
2023-02-28T11:39:42.897Z,1.92
2023-02-28T11:42:41.942Z,3.90
2023-02-28T11:45:43.954Z,4.40
2023-02-28T11:48:28.777Z,3.65
2023-02-28T11:51:31.102Z,3.60
2023-02-28T11:54:48.438Z,3.55
2023-02-28T11:57:27.051Z,3.00
2023-02-28T12:00:17.281Z,3.13
2023-02-28T12:03:33.237Z,2.45
2023-02-28T12:06:23.499Z,2.60
2023-02-28T12:09:30.602Z,2.80
2023-02-28T12:12:29.388Z,2.75
2023-02-28T12:15:30.300Z,3.03
2023-02-28T12:18:35.743Z,3.13
2023-02-28T12:21:16.629Z,2.20
2023-02-28T12:24:00.478Z,2.28
2023-02-28T12:26:44.113Z,1.70
2023-02-28T12:29:50.413Z,1.30
2023-02-28T12:32:28.194Z,1.08
2023-02-28T12:35:15.542Z,0.77
2023-02-28T12:37:51.393Z,0.70
2023-02-28T12:40:23.321Z,0.70
2023-02-28T12:42:55.327Z,0.60
2023-02-28T12:45:27.548Z,0.52
2023-02-28T12:48:03.995Z,0.63
2023-02-28T12:50:33.937Z,0.73
2023-02-28T12:53:10.309Z,0.80
2023-02-28T12:55:50.954Z,1.75
2023-02-28T12:58:49.068Z,2.15
2023-02-28T13:01:37.670Z,1.60
2023-02-28T13:04:54.019Z,1.88
2023-02-28T13:07:38.793Z,1.90
2023-02-28T13:10:08.771Z,1.52
2023-02-28T13:12:36.982Z,1.70
2023-02-28T13:15:29.133Z,1.73
2023-02-28T13:17:59.983Z,1.80
2023-02-28T13:20:33.426Z,1.58
2023-02-28T13:23:02.365Z,1.77
2023-02-28T13:25:54.627Z,1.45
2023-02-28T13:28:52.176Z,1.48
2023-02-28T13:31:19.878Z,1.60
2023-02-28T13:33:50.628Z,1.30
2023-02-28T13:36:20.636Z,1.70
2023-02-28T13:38:50.795Z,1.30
2023-02-28T13:41:33.012Z,1.60
2023-02-28T13:44:24.501Z,1.67
2023-02-28T13:46:51.789Z,0.90
2023-02-28T13:49:27.870Z,1.42
2023-02-28T13:52:13.763Z,1.10
2023-02-28T13:55:39.422Z,1.00
2023-02-28T13:58:43.452Z,0.90
2023-02-28T14:01:23.493Z,1.25
2023-02-28T14:04:37.050Z,1.20
2023-02-28T14:07:05.107Z,1.40
2023-02-28T14:09:46.331Z,1.30
2023-02-28T14:12:58.918Z,1.35
2023-02-28T14:15:35.260Z,1.27
2023-02-28T14:18:16.945Z,1.13
2023-02-28T14:20:50.682Z,1.38
2023-02-28T14:23:29.619Z,1.40
2023-02-28T14:26:54.085Z,1.52
2023-02-28T14:29:52.742Z,1.63
2023-02-28T14:32:41.735Z,1.35
2023-02-28T14:35:26.992Z,1.70
2023-02-28T14:37:55.225Z,1.77
2023-02-28T14:40:32.889Z,2.00
2023-02-28T14:43:04.671Z,2.25
2023-02-28T14:45:35.522Z,2.38
2023-02-28T14:48:04.185Z,3.28
2023-02-28T14:50:35.837Z,2.40
2023-02-28T14:53:04.520Z,1.67
2023-02-28T14:55:36.075Z,1.70
2023-02-28T14:58:10.605Z,2.03
2023-02-28T15:00:48.682Z,1.60
2023-02-28T15:03:34.522Z,1.80
2023-02-28T15:06:12.458Z,2.00
2023-02-28T15:08:39.432Z,2.05
2023-02-28T15:11:09.567Z,1.70
2023-02-28T15:13:48.458Z,1.90
2023-02-28T15:16:21.808Z,2.40
2023-02-28T15:19:33.814Z,2.40
2023-02-28T15:22:18.034Z,2.00
2023-02-28T15:24:52.245Z,1.85
2023-02-28T15:27:25.738Z,1.73
2023-02-28T15:30:02.055Z,2.85
2023-02-28T15:32:34.923Z,2.10
2023-02-28T15:35:36.984Z,1.70
2023-02-28T15:38:16.560Z,1.70
2023-02-28T15:40:54.616Z,1.60
2023-02-28T15:43:30.804Z,2.83
2023-02-28T15:46:09.835Z,2.60
2023-02-28T15:48:55.126Z,2.72
2023-02-28T15:51:37.952Z,3.22
2023-02-28T15:54:10.679Z,3.42
2023-02-28T15:56:46.894Z,3.60
2023-02-28T15:59:30.417Z,3.95
2023-02-28T16:02:38.247Z,3.38
2023-02-28T16:05:11.154Z,3.20
2023-02-28T16:07:41.342Z,2.83
2023-02-28T16:10:10.480Z,2.83
2023-02-28T16:12:40.047Z,2.28
2023-02-28T16:15:30.560Z,1.83
2023-02-28T16:17:59.206Z,2.08
2023-02-28T16:20:31.860Z,2.20
2023-02-28T16:23:02.503Z,2.00
2023-02-28T16:25:39.455Z,2.08
2023-02-28T16:28:19.411Z,2.10
2023-02-28T16:30:46.656Z,1.90
2023-02-28T16:33:13.478Z,2.10
2023-02-28T16:35:40.318Z,1.90
2023-02-28T16:38:07.102Z,1.65
2023-02-28T16:40:37.245Z,1.50
2023-02-28T16:43:11.102Z,1.77
2023-02-28T16:45:38.266Z,1.63
2023-02-28T16:48:05.189Z,1.30
2023-02-28T16:50:33.819Z,1.13
2023-02-28T16:53:00.601Z,1.15
2023-02-28T16:55:28.620Z,1.70
2023-02-28T16:57:59.965Z,2.00
2023-02-28T17:00:29.645Z,1.95
2023-02-28T17:02:57.669Z,2.03
2023-02-28T17:05:25.068Z,1.63
2023-02-28T17:07:52.472Z,2.03
2023-02-28T17:10:24.423Z,1.50
2023-02-28T17:12:53.714Z,1.55
2023-02-28T17:15:21.986Z,1.65
2023-02-28T17:17:50.128Z,1.35
2023-02-28T17:20:27.609Z,1.80
2023-02-28T17:22:55.944Z,2.10
2023-02-28T17:25:24.231Z,2.35
2023-02-28T17:27:54.308Z,2.42
2023-02-28T17:30:30.916Z,2.05
2023-02-28T17:32:58.070Z,2.03
2023-02-28T17:35:25.517Z,2.20
2023-02-28T17:37:52.489Z,2.60
2023-02-28T17:40:24.073Z,1.90
2023-02-28T17:42:53.508Z,1.77
2023-02-28T17:45:21.123Z,1.75
2023-02-28T17:47:50.746Z,2.03
2023-02-28T17:50:22.005Z,3.17
2023-02-28T17:52:51.439Z,3.75
2023-02-28T17:55:20.178Z,3.13
2023-02-28T17:57:48.354Z,3.30
2023-02-28T18:00:18.829Z,2.90
2023-02-28T18:02:46.246Z,2.20
2023-02-28T18:05:13.345Z,1.33
2023-02-28T18:07:40.958Z,1.50
2023-02-28T18:10:16.297Z,1.10
2023-02-28T18:12:44.084Z,1.27
2023-02-28T18:15:11.657Z,1.80
2023-02-28T18:17:38.622Z,1.67
2023-02-28T18:20:06.297Z,1.70
2023-02-28T18:22:33.313Z,2.20
2023-02-28T18:25:00.167Z,1.67
2023-02-28T18:27:27.018Z,1.77
2023-02-28T18:29:53.899Z,1.80
2023-02-28T18:32:20.865Z,1.83
2023-02-28T18:34:48.093Z,2.00
2023-02-28T18:37:16.360Z,1.60
2023-02-28T18:39:43.185Z,1.80
2023-02-28T18:42:10.161Z,2.00
2023-02-28T18:44:38.288Z,1.98
2023-02-28T18:47:05.383Z,2.63
2023-02-28T18:49:34.972Z,3.78
2023-02-28T18:52:02.889Z,7.47
2023-02-28T18:54:30.299Z,23.98
2023-02-28T18:56:57.574Z,33.08
2023-02-28T18:59:24.500Z,13.63
2023-02-28T19:01:51.356Z,9.77
2023-02-28T19:04:18.385Z,4.47
2023-02-28T19:06:45.373Z,3.10
2023-02-28T19:09:12.449Z,2.80
2023-02-28T19:11:39.643Z,2.05
2023-02-28T19:14:06.751Z,2.55
2023-02-28T19:16:33.838Z,2.90
2023-02-28T19:19:00.807Z,2.88
2023-02-28T19:21:27.826Z,3.20
2023-02-28T19:23:54.994Z,3.67
2023-02-28T19:26:25.034Z,3.63
2023-02-28T19:28:51.996Z,4.05
2023-02-28T19:31:22.670Z,4.63
2023-02-28T19:33:49.684Z,4.00
2023-02-28T19:36:16.897Z,4.45
2023-02-28T19:38:44.906Z,3.85
2023-02-28T19:41:14.744Z,4.03
2023-02-28T19:43:42.222Z,4.03
2023-02-28T19:46:12.534Z,3.85
2023-02-28T19:48:45.053Z,3.28
2023-02-28T19:51:18.909Z,3.20
2023-02-28T19:53:48.062Z,3.20
2023-02-28T19:56:17.093Z,2.95
2023-02-28T19:58:45.003Z,3.53
2023-02-28T20:01:19.029Z,3.03
2023-02-28T20:03:54.127Z,3.10
2023-02-28T20:06:22.146Z,4.03
2023-02-28T20:08:49.288Z,4.82
2023-02-28T20:11:17.966Z,2.85
2023-02-28T20:13:45.304Z,2.90
2023-02-28T20:16:13.779Z,2.55
2023-02-28T20:18:41.951Z,2.80
2023-02-28T20:21:10.996Z,2.40
2023-02-28T20:23:40.040Z,2.33
2023-02-28T20:26:10.180Z,2.40
2023-02-28T20:28:37.784Z,3.13
2023-02-28T20:31:15.671Z,3.15
2023-02-28T20:33:46.713Z,3.35
2023-02-28T20:36:15.940Z,3.80
2023-02-28T20:38:43.909Z,4.35
2023-02-28T20:41:11.163Z,6.20
2023-02-28T20:43:38.131Z,5.55
2023-02-28T20:46:05.642Z,6.45
2023-02-28T20:48:35.872Z,5.15
2023-02-28T20:51:06.422Z,4.60
2023-02-28T20:53:36.404Z,4.53
2023-02-28T20:56:13.841Z,4.60
2023-02-28T20:58:40.723Z,3.47
2023-02-28T21:01:17.885Z,3.42
2023-02-28T21:03:51.081Z,3.15
2023-02-28T21:06:20.908Z,2.70
2023-02-28T21:08:48.505Z,2.03
2023-02-28T21:11:19.479Z,2.85
2023-02-28T21:13:47.793Z,2.35
2023-02-28T21:16:18.277Z,2.13
2023-02-28T21:18:46.356Z,2.20
2023-02-28T21:21:17.964Z,1.85
2023-02-28T21:23:46.859Z,2.50
2023-02-28T21:26:18.833Z,1.92
2023-02-28T21:28:51.714Z,2.05
2023-02-28T21:31:21.473Z,2.20
2023-02-28T21:33:49.598Z,1.70
2023-02-28T21:36:20.793Z,2.20
2023-02-28T21:38:51.195Z,1.58
2023-02-28T21:41:22.591Z,1.60
2023-02-28T21:43:49.991Z,1.73
2023-02-28T21:46:22.273Z,1.80
2023-02-28T21:48:52.159Z,2.10
2023-02-28T21:51:26.959Z,2.22
2023-02-28T21:53:54.335Z,2.15
2023-02-28T21:56:25.308Z,2.10
2023-02-28T21:59:00.552Z,1.85
2023-02-28T22:01:44.464Z,2.17
2023-02-28T22:04:33.208Z,2.00
2023-02-28T22:07:00.019Z,2.00
2023-02-28T22:09:27.629Z,2.00
2023-02-28T22:11:54.737Z,2.85
2023-02-28T22:14:22.363Z,3.28
2023-02-28T22:16:52.995Z,3.80
2023-02-28T22:19:21.669Z,3.28
2023-02-28T22:21:49.002Z,2.10
2023-02-28T22:24:18.058Z,2.30
2023-02-28T22:26:45.309Z,2.08
2023-02-28T22:29:12.245Z,2.25
2023-02-28T22:31:39.308Z,2.00
2023-02-28T22:34:09.672Z,2.25
2023-02-28T22:36:37.151Z,2.30
2023-02-28T22:39:05.318Z,2.33
2023-02-28T22:41:32.722Z,2.40
2023-02-28T22:44:03.950Z,2.30
2023-02-28T22:46:34.066Z,2.63
2023-02-28T22:49:03.477Z,2.42
2023-02-28T22:51:31.433Z,2.95
2023-02-28T22:53:59.048Z,2.45
2023-02-28T22:56:29.775Z,2.65
2023-02-28T22:58:59.774Z,2.40
2023-02-28T23:01:29.866Z,2.83
2023-02-28T23:03:57.299Z,2.75
2023-02-28T23:06:34.483Z,2.95
2023-02-28T23:09:06.809Z,2.95
2023-02-28T23:11:40.805Z,3.05
2023-02-28T23:14:08.429Z,3.50
2023-02-28T23:16:42.929Z,2.85
2023-02-28T23:19:18.596Z,3.30
2023-02-28T23:21:46.931Z,3.33
2023-02-28T23:24:17.457Z,2.97
2023-02-28T23:26:49.205Z,3.42
2023-02-28T23:29:18.528Z,3.22
2023-02-28T23:31:46.040Z,3.33
2023-02-28T23:34:13.537Z,3.45
2023-02-28T23:36:46.347Z,3.22
2023-02-28T23:39:16.618Z,3.50
2023-02-28T23:41:44.268Z,3.33
2023-02-28T23:44:17.277Z,3.20
2023-02-28T23:46:46.799Z,3.13
2023-02-28T23:49:14.820Z,3.20
2023-02-28T23:51:42.066Z,3.35
2023-02-28T23:54:10.139Z,2.78
2023-02-28T23:56:36.986Z,2.70
2023-02-28T23:59:04.260Z,2.70
